sensor_id;sensor_type;location;lat;lon;timestamp;P1;durP1;ratioP1;P2;durP2;ratioP2
17844;SDS011;9047;53.486;10.218;2022-08-20T00:01:29;44.50;;;31.27;;
17844;SDS011;9047;53.486;10.218;2022-08-20T00:04:27;43.60;;;30.15;;
17844;SDS011;9047;53.486;10.218;2022-08-20T00:07:33;40.15;;;28.35;;
17844;SDS011;9047;53.486;10.218;2022-08-20T00:10:34;41.72;;;28.67;;
17844;SDS011;9047;53.486;10.218;2022-08-20T00:13:41;43.00;;;28.98;;
17844;SDS011;9047;53.486;10.218;2022-08-20T00:16:20;41.00;;;29.58;;
17844;SDS011;9047;53.486;10.218;2022-08-20T00:19:04;41.25;;;29.73;;
17844;SDS011;9047;53.486;10.218;2022-08-20T00:21:43;41.88;;;29.67;;
17844;SDS011;9047;53.486;10.218;2022-08-20T00:24:34;41.30;;;29.38;;
17844;SDS011;9047;53.486;10.218;2022-08-20T00:30:12;43.42;;;30.20;;
17844;SDS011;9047;53.486;10.218;2022-08-20T00:32:49;42.88;;;29.70;;
17844;SDS011;9047;53.486;10.218;2022-08-20T00:35:35;38.38;;;26.83;;
17844;SDS011;9047;53.486;10.218;2022-08-20T00:38:21;37.92;;;26.13;;
17844;SDS011;9047;53.486;10.218;2022-08-20T00:41:11;31.70;;;23.65;;
17844;SDS011;9047;53.486;10.218;2022-08-20T00:47:00;30.48;;;22.08;;
17844;SDS011;9047;53.486;10.218;2022-08-20T00:49:32;28.65;;;21.85;;
17844;SDS011;9047;53.486;10.218;2022-08-20T00:52:08;28.38;;;21.83;;
17844;SDS011;9047;53.486;10.218;2022-08-20T00:54:51;28.25;;;20.70;;
17844;SDS011;9047;53.486;10.218;2022-08-20T00:57:57;29.67;;;20.73;;
17844;SDS011;9047;53.486;10.218;2022-08-20T01:07:08;23.13;;;18.00;;
17844;SDS011;9047;53.486;10.218;2022-08-20T01:09:48;24.23;;;17.63;;
17844;SDS011;9047;53.486;10.218;2022-08-20T01:12:32;22.40;;;17.90;;
17844;SDS011;9047;53.486;10.218;2022-08-20T01:15:09;24.10;;;17.15;;
17844;SDS011;9047;53.486;10.218;2022-08-20T01:18:24;21.33;;;16.35;;
17844;SDS011;9047;53.486;10.218;2022-08-20T01:33:17;21.30;;;16.65;;
17844;SDS011;9047;53.486;10.218;2022-08-20T01:33:44;21.50;;;16.58;;
17844;SDS011;9047;53.486;10.218;2022-08-20T01:36:41;21.38;;;15.63;;
17844;SDS011;9047;53.486;10.218;2022-08-20T01:39:53;20.17;;;15.38;;
17844;SDS011;9047;53.486;10.218;2022-08-20T01:42:39;20.38;;;14.70;;
17844;SDS011;9047;53.486;10.218;2022-08-20T01:45:23;17.00;;;12.75;;
17844;SDS011;9047;53.486;10.218;2022-08-20T01:48:17;17.13;;;13.60;;
17844;SDS011;9047;53.486;10.218;2022-08-20T01:54:03;19.50;;;14.40;;
17844;SDS011;9047;53.486;10.218;2022-08-20T01:56:59;23.80;;;17.10;;
17844;SDS011;9047;53.486;10.218;2022-08-20T01:59:34;26.20;;;18.85;;
17844;SDS011;9047;53.486;10.218;2022-08-20T02:05:36;27.10;;;19.70;;
17844;SDS011;9047;53.486;10.218;2022-08-20T02:08:13;30.98;;;21.50;;
17844;SDS011;9047;53.486;10.218;2022-08-20T02:11:00;29.77;;;21.40;;
17844;SDS011;9047;53.486;10.218;2022-08-20T02:13:34;26.67;;;20.23;;
17844;SDS011;9047;53.486;10.218;2022-08-20T02:16:41;27.05;;;19.77;;
17844;SDS011;9047;53.486;10.218;2022-08-20T02:19:40;27.75;;;21.02;;
17844;SDS011;9047;53.486;10.218;2022-08-20T02:25:38;24.63;;;19.23;;
17844;SDS011;9047;53.486;10.218;2022-08-20T02:28:41;25.98;;;18.83;;
17844;SDS011;9047;53.486;10.218;2022-08-20T02:31:24;25.55;;;19.73;;
17844;SDS011;9047;53.486;10.218;2022-08-20T02:33:59;24.90;;;18.25;;
17844;SDS011;9047;53.486;10.218;2022-08-20T02:36:28;24.70;;;18.33;;
17844;SDS011;9047;53.486;10.218;2022-08-20T02:39:11;26.17;;;18.63;;
17844;SDS011;9047;53.486;10.218;2022-08-20T02:41:51;24.90;;;18.38;;
17844;SDS011;9047;53.486;10.218;2022-08-20T02:44:31;25.42;;;19.23;;
17844;SDS011;9047;53.486;10.218;2022-08-20T02:47:06;23.52;;;17.67;;
17844;SDS011;9047;53.486;10.218;2022-08-20T02:49:41;22.17;;;17.23;;
17844;SDS011;9047;53.486;10.218;2022-08-20T02:52:21;22.58;;;17.98;;
17844;SDS011;9047;53.486;10.218;2022-08-20T02:54:59;26.73;;;19.58;;
17844;SDS011;9047;53.486;10.218;2022-08-20T02:57:37;24.85;;;18.55;;
17844;SDS011;9047;53.486;10.218;2022-08-20T03:00:11;24.35;;;18.67;;
17844;SDS011;9047;53.486;10.218;2022-08-20T03:02:48;24.27;;;19.15;;
17844;SDS011;9047;53.486;10.218;2022-08-20T03:05:30;22.73;;;17.60;;
17844;SDS011;9047;53.486;10.218;2022-08-20T03:08:13;19.58;;;15.30;;
17844;SDS011;9047;53.486;10.218;2022-08-20T03:10:46;20.83;;;14.93;;
17844;SDS011;9047;53.486;10.218;2022-08-20T03:13:18;23.95;;;18.40;;
17844;SDS011;9047;53.486;10.218;2022-08-20T03:18:46;23.60;;;17.75;;
17844;SDS011;9047;53.486;10.218;2022-08-20T03:21:29;22.73;;;16.67;;
17844;SDS011;9047;53.486;10.218;2022-08-20T03:24:11;23.35;;;16.77;;
17844;SDS011;9047;53.486;10.218;2022-08-20T03:26:43;19.88;;;15.38;;
17844;SDS011;9047;53.486;10.218;2022-08-20T03:29:17;22.77;;;16.98;;
17844;SDS011;9047;53.486;10.218;2022-08-20T03:32:07;24.08;;;16.58;;
17844;SDS011;9047;53.486;10.218;2022-08-20T03:34:38;20.38;;;15.90;;
17844;SDS011;9047;53.486;10.218;2022-08-20T03:37:13;20.33;;;16.00;;
17844;SDS011;9047;53.486;10.218;2022-08-20T03:39:48;19.67;;;15.13;;
17844;SDS011;9047;53.486;10.218;2022-08-20T03:42:30;16.83;;;14.45;;
17844;SDS011;9047;53.486;10.218;2022-08-20T03:45:09;19.50;;;14.57;;
17844;SDS011;9047;53.486;10.218;2022-08-20T03:50:37;16.63;;;14.27;;
17844;SDS011;9047;53.486;10.218;2022-08-20T03:53:12;18.95;;;14.30;;
17844;SDS011;9047;53.486;10.218;2022-08-20T03:55:57;17.67;;;13.70;;
17844;SDS011;9047;53.486;10.218;2022-08-20T03:58:44;16.63;;;13.75;;
17844;SDS011;9047;53.486;10.218;2022-08-20T04:01:33;16.20;;;13.20;;
17844;SDS011;9047;53.486;10.218;2022-08-20T04:04:12;16.63;;;13.38;;
17844;SDS011;9047;53.486;10.218;2022-08-20T04:06:44;14.25;;;11.68;;
17844;SDS011;9047;53.486;10.218;2022-08-20T04:09:24;13.15;;;10.68;;
17844;SDS011;9047;53.486;10.218;2022-08-20T04:12:08;16.55;;;12.85;;
17844;SDS011;9047;53.486;10.218;2022-08-20T04:14:46;15.73;;;12.50;;
17844;SDS011;9047;53.486;10.218;2022-08-20T04:17:32;16.38;;;12.05;;
17844;SDS011;9047;53.486;10.218;2022-08-20T04:20:03;17.40;;;12.98;;
17844;SDS011;9047;53.486;10.218;2022-08-20T04:22:34;15.77;;;12.75;;
17844;SDS011;9047;53.486;10.218;2022-08-20T04:25:16;20.75;;;14.40;;
17844;SDS011;9047;53.486;10.218;2022-08-20T04:27:44;15.50;;;12.23;;
17844;SDS011;9047;53.486;10.218;2022-08-20T04:30:16;14.98;;;11.73;;
17844;SDS011;9047;53.486;10.218;2022-08-20T04:32:56;12.73;;;11.25;;
17844;SDS011;9047;53.486;10.218;2022-08-20T04:35:37;14.13;;;11.27;;
17844;SDS011;9047;53.486;10.218;2022-08-20T04:38:52;15.23;;;11.60;;
17844;SDS011;9047;53.486;10.218;2022-08-20T04:41:35;19.13;;;13.00;;
17844;SDS011;9047;53.486;10.218;2022-08-20T04:44:12;18.10;;;12.45;;
17844;SDS011;9047;53.486;10.218;2022-08-20T04:46:47;17.90;;;12.55;;
17844;SDS011;9047;53.486;10.218;2022-08-20T04:49:29;16.15;;;11.57;;
17844;SDS011;9047;53.486;10.218;2022-08-20T04:55:28;22.42;;;14.40;;
17844;SDS011;9047;53.486;10.218;2022-08-20T05:01:07;23.35;;;14.82;;
17844;SDS011;9047;53.486;10.218;2022-08-20T05:03:44;23.40;;;15.00;;
17844;SDS011;9047;53.486;10.218;2022-08-20T05:06:31;23.50;;;14.73;;
17844;SDS011;9047;53.486;10.218;2022-08-20T05:15:41;21.88;;;14.23;;
17844;SDS011;9047;53.486;10.218;2022-08-20T05:18:34;19.15;;;14.10;;
17844;SDS011;9047;53.486;10.218;2022-08-20T05:28:46;19.27;;;12.90;;
17844;SDS011;9047;53.486;10.218;2022-08-20T05:34:28;19.38;;;13.57;;
17844;SDS011;9047;53.486;10.218;2022-08-20T05:37:13;21.17;;;14.60;;
17844;SDS011;9047;53.486;10.218;2022-08-20T05:39:49;24.73;;;15.73;;
17844;SDS011;9047;53.486;10.218;2022-08-20T05:42:45;22.52;;;14.75;;
17844;SDS011;9047;53.486;10.218;2022-08-20T05:45:25;26.75;;;15.68;;
17844;SDS011;9047;53.486;10.218;2022-08-20T05:47:56;19.52;;;14.40;;
17844;SDS011;9047;53.486;10.218;2022-08-20T05:50:49;21.42;;;14.43;;
17844;SDS011;9047;53.486;10.218;2022-08-20T05:53:45;21.25;;;13.52;;
17844;SDS011;9047;53.486;10.218;2022-08-20T05:56:59;20.48;;;12.75;;
17844;SDS011;9047;53.486;10.218;2022-08-20T05:59:31;18.58;;;12.88;;
17844;SDS011;9047;53.486;10.218;2022-08-20T06:05:41;21.67;;;13.73;;
17844;SDS011;9047;53.486;10.218;2022-08-20T06:08:36;17.33;;;11.90;;
17844;SDS011;9047;53.486;10.218;2022-08-20T06:11:23;14.15;;;10.98;;
17844;SDS011;9047;53.486;10.218;2022-08-20T06:13:54;16.75;;;11.13;;
17844;SDS011;9047;53.486;10.218;2022-08-20T06:16:39;17.35;;;10.88;;
17844;SDS011;9047;53.486;10.218;2022-08-20T06:19:20;19.23;;;11.88;;
17844;SDS011;9047;53.486;10.218;2022-08-20T06:22:23;16.95;;;10.80;;
17844;SDS011;9047;53.486;10.218;2022-08-20T06:24:55;15.38;;;10.70;;
17844;SDS011;9047;53.486;10.218;2022-08-20T06:27:32;17.20;;;11.40;;
17844;SDS011;9047;53.486;10.218;2022-08-20T06:30:26;17.00;;;10.98;;
17844;SDS011;9047;53.486;10.218;2022-08-20T06:33:13;16.13;;;11.63;;
17844;SDS011;9047;53.486;10.218;2022-08-20T06:35:59;16.40;;;11.20;;
17844;SDS011;9047;53.486;10.218;2022-08-20T06:38:37;16.52;;;11.13;;
17844;SDS011;9047;53.486;10.218;2022-08-20T06:41:10;18.50;;;11.23;;
17844;SDS011;9047;53.486;10.218;2022-08-20T06:43:48;16.83;;;11.75;;
17844;SDS011;9047;53.486;10.218;2022-08-20T06:46:31;12.73;;;9.07;;
17844;SDS011;9047;53.486;10.218;2022-08-20T06:49:37;15.60;;;11.30;;
17844;SDS011;9047;53.486;10.218;2022-08-20T06:52:37;16.58;;;10.10;;
17844;SDS011;9047;53.486;10.218;2022-08-20T06:58:53;17.77;;;10.73;;
17844;SDS011;9047;53.486;10.218;2022-08-20T07:01:39;15.63;;;10.50;;
17844;SDS011;9047;53.486;10.218;2022-08-20T07:08:16;13.50;;;9.55;;
17844;SDS011;9047;53.486;10.218;2022-08-20T07:11:09;11.77;;;9.32;;
17844;SDS011;9047;53.486;10.218;2022-08-20T07:14:00;14.00;;;9.45;;
17844;SDS011;9047;53.486;10.218;2022-08-20T07:16:46;13.88;;;9.90;;
17844;SDS011;9047;53.486;10.218;2022-08-20T07:22:52;12.30;;;9.30;;
17844;SDS011;9047;53.486;10.218;2022-08-20T07:25:41;13.05;;;9.45;;
17844;SDS011;9047;53.486;10.218;2022-08-20T07:29:29;14.30;;;10.48;;
17844;SDS011;9047;53.486;10.218;2022-08-20T07:32:45;13.00;;;10.07;;
17844;SDS011;9047;53.486;10.218;2022-08-20T07:36:03;16.27;;;9.90;;
17844;SDS011;9047;53.486;10.218;2022-08-20T07:42:04;11.10;;;8.65;;
17844;SDS011;9047;53.486;10.218;2022-08-20T07:44:48;12.75;;;8.85;;
17844;SDS011;9047;53.486;10.218;2022-08-20T07:48:48;10.15;;;7.82;;
17844;SDS011;9047;53.486;10.218;2022-08-20T07:51:18;11.20;;;8.15;;
17844;SDS011;9047;53.486;10.218;2022-08-20T07:53:51;11.25;;;8.07;;
17844;SDS011;9047;53.486;10.218;2022-08-20T07:56:24;10.77;;;6.85;;
17844;SDS011;9047;53.486;10.218;2022-08-20T07:58:59;10.60;;;7.82;;
17844;SDS011;9047;53.486;10.218;2022-08-20T08:02:06;10.40;;;7.95;;
17844;SDS011;9047;53.486;10.218;2022-08-20T08:04:36;10.52;;;7.70;;
17844;SDS011;9047;53.486;10.218;2022-08-20T08:07:22;9.63;;;6.75;;
17844;SDS011;9047;53.486;10.218;2022-08-20T08:12:51;8.75;;;6.07;;
17844;SDS011;9047;53.486;10.218;2022-08-20T08:15:39;11.95;;;6.35;;
17844;SDS011;9047;53.486;10.218;2022-08-20T08:21:31;7.18;;;5.03;;
17844;SDS011;9047;53.486;10.218;2022-08-20T08:24:32;6.25;;;4.82;;
17844;SDS011;9047;53.486;10.218;2022-08-20T08:26:59;7.90;;;4.68;;
17844;SDS011;9047;53.486;10.218;2022-08-20T08:29:27;7.60;;;4.75;;
17844;SDS011;9047;53.486;10.218;2022-08-20T08:38:17;6.32;;;3.65;;
17844;SDS011;9047;53.486;10.218;2022-08-20T08:41:03;6.88;;;3.50;;
17844;SDS011;9047;53.486;10.218;2022-08-20T08:43:49;6.90;;;3.85;;
17844;SDS011;9047;53.486;10.218;2022-08-20T08:53:17;7.05;;;2.92;;
17844;SDS011;9047;53.486;10.218;2022-08-20T08:56:28;6.43;;;2.60;;
17844;SDS011;9047;53.486;10.218;2022-08-20T08:59:35;6.68;;;2.78;;
17844;SDS011;9047;53.486;10.218;2022-08-20T09:02:26;5.28;;;2.40;;
17844;SDS011;9047;53.486;10.218;2022-08-20T09:05:57;14.60;;;6.18;;
17844;SDS011;9047;53.486;10.218;2022-08-20T09:15:08;4.95;;;2.40;;
17844;SDS011;9047;53.486;10.218;2022-08-20T09:18:12;7.35;;;3.35;;
17844;SDS011;9047;53.486;10.218;2022-08-20T09:21:16;6.05;;;2.35;;
17844;SDS011;9047;53.486;10.218;2022-08-20T09:23:56;5.57;;;2.20;;
17844;SDS011;9047;53.486;10.218;2022-08-20T09:29:39;4.47;;;2.25;;
17844;SDS011;9047;53.486;10.218;2022-08-20T09:32:22;5.43;;;2.47;;
17844;SDS011;9047;53.486;10.218;2022-08-20T09:35:25;5.15;;;2.88;;
17844;SDS011;9047;53.486;10.218;2022-08-20T09:42:05;5.18;;;2.45;;
17844;SDS011;9047;53.486;10.218;2022-08-20T09:48:00;5.93;;;2.00;;
17844;SDS011;9047;53.486;10.218;2022-08-20T09:53:43;6.40;;;3.15;;
17844;SDS011;9047;53.486;10.218;2022-08-20T09:59:47;5.10;;;2.00;;
17844;SDS011;9047;53.486;10.218;2022-08-20T10:05:34;3.72;;;1.80;;
17844;SDS011;9047;53.486;10.218;2022-08-20T10:08:04;5.25;;;2.00;;
17844;SDS011;9047;53.486;10.218;2022-08-20T10:11:05;8.50;;;2.40;;
17844;SDS011;9047;53.486;10.218;2022-08-20T10:14:13;7.57;;;2.15;;
17844;SDS011;9047;53.486;10.218;2022-08-20T10:16:44;8.48;;;2.25;;
17844;SDS011;9047;53.486;10.218;2022-08-20T10:22:10;3.47;;;1.90;;
17844;SDS011;9047;53.486;10.218;2022-08-20T10:24:50;6.88;;;2.20;;
17844;SDS011;9047;53.486;10.218;2022-08-20T10:27:21;4.20;;;2.20;;
17844;SDS011;9047;53.486;10.218;2022-08-20T10:30:00;9.05;;;2.65;;
17844;SDS011;9047;53.486;10.218;2022-08-20T10:36:18;5.70;;;1.90;;
17844;SDS011;9047;53.486;10.218;2022-08-20T10:42:00;6.32;;;2.10;;
17844;SDS011;9047;53.486;10.218;2022-08-20T10:45:03;7.47;;;2.30;;
17844;SDS011;9047;53.486;10.218;2022-08-20T10:48:08;7.28;;;2.40;;
17844;SDS011;9047;53.486;10.218;2022-08-20T10:57:20;5.18;;;2.10;;
17844;SDS011;9047;53.486;10.218;2022-08-20T10:59:51;5.35;;;2.20;;
17844;SDS011;9047;53.486;10.218;2022-08-20T11:16:29;7.03;;;2.30;;
17844;SDS011;9047;53.486;10.218;2022-08-20T11:19:54;8.40;;;2.45;;
17844;SDS011;9047;53.486;10.218;2022-08-20T11:22:25;8.68;;;2.15;;
17844;SDS011;9047;53.486;10.218;2022-08-20T11:25:23;5.00;;;2.30;;
17844;SDS011;9047;53.486;10.218;2022-08-20T11:27:52;6.28;;;2.00;;
17844;SDS011;9047;53.486;10.218;2022-08-20T11:30:25;8.95;;;2.63;;
17844;SDS011;9047;53.486;10.218;2022-08-20T11:32:57;5.95;;;2.53;;
17844;SDS011;9047;53.486;10.218;2022-08-20T11:35:26;8.70;;;2.38;;
17844;SDS011;9047;53.486;10.218;2022-08-20T11:37:57;6.25;;;2.55;;
17844;SDS011;9047;53.486;10.218;2022-08-20T11:40:28;4.25;;;1.58;;
17844;SDS011;9047;53.486;10.218;2022-08-20T11:43:11;5.70;;;1.95;;
17844;SDS011;9047;53.486;10.218;2022-08-20T11:45:48;5.65;;;2.33;;
17844;SDS011;9047;53.486;10.218;2022-08-20T11:51:50;5.53;;;1.95;;
17844;SDS011;9047;53.486;10.218;2022-08-20T11:54:22;9.63;;;2.22;;
17844;SDS011;9047;53.486;10.218;2022-08-20T11:57:08;7.60;;;2.17;;
17844;SDS011;9047;53.486;10.218;2022-08-20T11:59:52;3.92;;;1.70;;
17844;SDS011;9047;53.486;10.218;2022-08-20T12:09:06;8.00;;;2.30;;
17844;SDS011;9047;53.486;10.218;2022-08-20T12:11:33;7.90;;;2.22;;
17844;SDS011;9047;53.486;10.218;2022-08-20T12:14:00;6.18;;;2.00;;
17844;SDS011;9047;53.486;10.218;2022-08-20T12:16:27;5.80;;;1.88;;
17844;SDS011;9047;53.486;10.218;2022-08-20T12:18:54;6.13;;;2.10;;
17844;SDS011;9047;53.486;10.218;2022-08-20T12:21:22;3.55;;;1.80;;
17844;SDS011;9047;53.486;10.218;2022-08-20T12:23:55;5.00;;;1.80;;
17844;SDS011;9047;53.486;10.218;2022-08-20T12:26:34;5.97;;;1.88;;
17844;SDS011;9047;53.486;10.218;2022-08-20T12:29:04;6.30;;;2.20;;
17844;SDS011;9047;53.486;10.218;2022-08-20T12:31:38;7.75;;;2.45;;
17844;SDS011;9047;53.486;10.218;2022-08-20T12:34:17;6.47;;;1.90;;
17844;SDS011;9047;53.486;10.218;2022-08-20T12:36:45;6.35;;;1.92;;
17844;SDS011;9047;53.486;10.218;2022-08-20T12:39:12;6.78;;;2.17;;
17844;SDS011;9047;53.486;10.218;2022-08-20T12:41:39;5.10;;;2.20;;
17844;SDS011;9047;53.486;10.218;2022-08-20T12:44:06;6.15;;;2.00;;
17844;SDS011;9047;53.486;10.218;2022-08-20T12:46:33;5.40;;;2.00;;
17844;SDS011;9047;53.486;10.218;2022-08-20T12:49:00;8.27;;;2.10;;
17844;SDS011;9047;53.486;10.218;2022-08-20T12:51:47;9.18;;;2.30;;
17844;SDS011;9047;53.486;10.218;2022-08-20T12:54:14;7.35;;;2.13;;
17844;SDS011;9047;53.486;10.218;2022-08-20T12:56:41;5.47;;;1.83;;
17844;SDS011;9047;53.486;10.218;2022-08-20T12:59:21;5.18;;;2.00;;
17844;SDS011;9047;53.486;10.218;2022-08-20T13:01:49;6.18;;;2.00;;
17844;SDS011;9047;53.486;10.218;2022-08-20T13:04:25;5.43;;;1.60;;
17844;SDS011;9047;53.486;10.218;2022-08-20T13:09:42;6.20;;;1.40;;
17844;SDS011;9047;53.486;10.218;2022-08-20T13:12:10;5.25;;;1.63;;
17844;SDS011;9047;53.486;10.218;2022-08-20T13:14:41;4.97;;;1.50;;
17844;SDS011;9047;53.486;10.218;2022-08-20T13:17:10;7.20;;;1.63;;
17844;SDS011;9047;53.486;10.218;2022-08-20T13:19:38;4.75;;;1.48;;
17844;SDS011;9047;53.486;10.218;2022-08-20T13:22:05;8.43;;;1.90;;
17844;SDS011;9047;53.486;10.218;2022-08-20T13:24:38;6.50;;;2.13;;
17844;SDS011;9047;53.486;10.218;2022-08-20T13:27:07;5.10;;;1.63;;
17844;SDS011;9047;53.486;10.218;2022-08-20T13:29:44;5.70;;;1.73;;
17844;SDS011;9047;53.486;10.218;2022-08-20T13:32:32;7.10;;;1.65;;
17844;SDS011;9047;53.486;10.218;2022-08-20T13:35:07;6.85;;;1.35;;
17844;SDS011;9047;53.486;10.218;2022-08-20T13:37:35;5.57;;;1.40;;
17844;SDS011;9047;53.486;10.218;2022-08-20T13:40:06;8.13;;;1.40;;
17844;SDS011;9047;53.486;10.218;2022-08-20T13:42:34;4.60;;;1.45;;
17844;SDS011;9047;53.486;10.218;2022-08-20T13:45:03;5.25;;;1.70;;
17844;SDS011;9047;53.486;10.218;2022-08-20T13:47:40;4.45;;;1.25;;
17844;SDS011;9047;53.486;10.218;2022-08-20T13:50:17;7.18;;;1.25;;
17844;SDS011;9047;53.486;10.218;2022-08-20T13:52:46;6.20;;;1.42;;
17844;SDS011;9047;53.486;10.218;2022-08-20T13:55:25;5.65;;;1.60;;
17844;SDS011;9047;53.486;10.218;2022-08-20T13:57:53;7.05;;;1.40;;
17844;SDS011;9047;53.486;10.218;2022-08-20T14:00:22;5.28;;;1.60;;
17844;SDS011;9047;53.486;10.218;2022-08-20T14:03:10;4.05;;;1.30;;
17844;SDS011;9047;53.486;10.218;2022-08-20T14:05:59;6.20;;;1.33;;
17844;SDS011;9047;53.486;10.218;2022-08-20T14:08:37;5.63;;;1.30;;
17844;SDS011;9047;53.486;10.218;2022-08-20T14:11:09;5.68;;;1.45;;
17844;SDS011;9047;53.486;10.218;2022-08-20T14:13:44;4.50;;;1.48;;
17844;SDS011;9047;53.486;10.218;2022-08-20T14:16:12;8.25;;;1.65;;
17844;SDS011;9047;53.486;10.218;2022-08-20T14:18:38;5.70;;;1.85;;
17844;SDS011;9047;53.486;10.218;2022-08-20T14:21:06;6.22;;;1.30;;
17844;SDS011;9047;53.486;10.218;2022-08-20T14:23:33;7.82;;;1.90;;
17844;SDS011;9047;53.486;10.218;2022-08-20T14:26:01;3.95;;;1.20;;
17844;SDS011;9047;53.486;10.218;2022-08-20T14:28:30;5.97;;;1.38;;
17844;SDS011;9047;53.486;10.218;2022-08-20T14:30:57;4.07;;;1.52;;
17844;SDS011;9047;53.486;10.218;2022-08-20T14:33:24;7.13;;;1.80;;
17844;SDS011;9047;53.486;10.218;2022-08-20T14:35:51;5.97;;;1.45;;
17844;SDS011;9047;53.486;10.218;2022-08-20T14:38:19;6.40;;;1.52;;
17844;SDS011;9047;53.486;10.218;2022-08-20T14:40:47;9.07;;;1.40;;
17844;SDS011;9047;53.486;10.218;2022-08-20T14:43:15;4.13;;;1.02;;
17844;SDS011;9047;53.486;10.218;2022-08-20T14:45:43;6.05;;;1.50;;
17844;SDS011;9047;53.486;10.218;2022-08-20T14:48:10;4.30;;;1.25;;
17844;SDS011;9047;53.486;10.218;2022-08-20T14:50:43;5.45;;;1.63;;
17844;SDS011;9047;53.486;10.218;2022-08-20T14:53:15;6.07;;;1.50;;
17844;SDS011;9047;53.486;10.218;2022-08-20T14:55:43;4.50;;;1.23;;
17844;SDS011;9047;53.486;10.218;2022-08-20T14:58:11;4.57;;;1.23;;
17844;SDS011;9047;53.486;10.218;2022-08-20T15:00:43;5.82;;;1.40;;
17844;SDS011;9047;53.486;10.218;2022-08-20T15:03:10;3.78;;;1.42;;
17844;SDS011;9047;53.486;10.218;2022-08-20T15:05:38;4.97;;;1.30;;
17844;SDS011;9047;53.486;10.218;2022-08-20T15:08:06;6.82;;;1.05;;
17844;SDS011;9047;53.486;10.218;2022-08-20T15:10:34;4.65;;;1.27;;
17844;SDS011;9047;53.486;10.218;2022-08-20T15:13:02;5.35;;;1.48;;
17844;SDS011;9047;53.486;10.218;2022-08-20T15:15:30;5.43;;;1.60;;
17844;SDS011;9047;53.486;10.218;2022-08-20T15:17:58;4.47;;;1.27;;
17844;SDS011;9047;53.486;10.218;2022-08-20T15:20:27;2.92;;;0.95;;
17844;SDS011;9047;53.486;10.218;2022-08-20T15:22:56;6.05;;;1.33;;
17844;SDS011;9047;53.486;10.218;2022-08-20T15:25:26;6.13;;;1.60;;
17844;SDS011;9047;53.486;10.218;2022-08-20T15:27:57;5.80;;;1.33;;
17844;SDS011;9047;53.486;10.218;2022-08-20T15:30:25;4.80;;;1.13;;
17844;SDS011;9047;53.486;10.218;2022-08-20T15:33:00;3.63;;;1.02;;
17844;SDS011;9047;53.486;10.218;2022-08-20T15:35:27;3.50;;;1.20;;
17844;SDS011;9047;53.486;10.218;2022-08-20T15:37:55;6.25;;;1.80;;
17844;SDS011;9047;53.486;10.218;2022-08-20T15:40:24;4.85;;;1.30;;
17844;SDS011;9047;53.486;10.218;2022-08-20T15:42:52;4.78;;;1.30;;
17844;SDS011;9047;53.486;10.218;2022-08-20T15:45:20;5.10;;;1.95;;
17844;SDS011;9047;53.486;10.218;2022-08-20T15:47:48;5.22;;;1.30;;
17844;SDS011;9047;53.486;10.218;2022-08-20T15:50:24;6.10;;;1.38;;
17844;SDS011;9047;53.486;10.218;2022-08-20T15:53:16;5.85;;;1.13;;
17844;SDS011;9047;53.486;10.218;2022-08-20T15:55:55;3.50;;;1.15;;
17844;SDS011;9047;53.486;10.218;2022-08-20T15:58:30;3.22;;;0.95;;
17844;SDS011;9047;53.486;10.218;2022-08-20T16:01:06;3.72;;;1.30;;
17844;SDS011;9047;53.486;10.218;2022-08-20T16:03:52;4.60;;;1.38;;
17844;SDS011;9047;53.486;10.218;2022-08-20T16:06:43;3.22;;;1.20;;
17844;SDS011;9047;53.486;10.218;2022-08-20T16:09:21;4.55;;;1.95;;
17844;SDS011;9047;53.486;10.218;2022-08-20T16:12:02;4.63;;;1.20;;
17844;SDS011;9047;53.486;10.218;2022-08-20T16:14:35;4.50;;;1.45;;
17844;SDS011;9047;53.486;10.218;2022-08-20T16:17:04;3.95;;;1.15;;
17844;SDS011;9047;53.486;10.218;2022-08-20T16:19:35;4.25;;;1.20;;
17844;SDS011;9047;53.486;10.218;2022-08-20T16:22:12;3.90;;;1.10;;
17844;SDS011;9047;53.486;10.218;2022-08-20T16:24:43;4.55;;;1.40;;
17844;SDS011;9047;53.486;10.218;2022-08-20T16:27:12;4.15;;;1.60;;
17844;SDS011;9047;53.486;10.218;2022-08-20T16:29:48;6.30;;;2.33;;
17844;SDS011;9047;53.486;10.218;2022-08-20T16:32:35;6.30;;;2.40;;
17844;SDS011;9047;53.486;10.218;2022-08-20T16:35:20;6.43;;;2.55;;
17844;SDS011;9047;53.486;10.218;2022-08-20T16:37:58;3.10;;;1.48;;
17844;SDS011;9047;53.486;10.218;2022-08-20T16:40:32;6.05;;;1.45;;
17844;SDS011;9047;53.486;10.218;2022-08-20T16:43:04;3.08;;;1.35;;
17844;SDS011;9047;53.486;10.218;2022-08-20T16:45:34;3.90;;;1.17;;
17844;SDS011;9047;53.486;10.218;2022-08-20T16:48:07;3.83;;;1.50;;
17844;SDS011;9047;53.486;10.218;2022-08-20T16:50:37;3.97;;;1.33;;
17844;SDS011;9047;53.486;10.218;2022-08-20T16:53:09;4.40;;;1.80;;
17844;SDS011;9047;53.486;10.218;2022-08-20T16:55:41;4.72;;;1.75;;
17844;SDS011;9047;53.486;10.218;2022-08-20T16:58:08;3.75;;;1.20;;
17844;SDS011;9047;53.486;10.218;2022-08-20T17:00:36;5.30;;;1.67;;
17844;SDS011;9047;53.486;10.218;2022-08-20T17:03:04;6.55;;;1.63;;
17844;SDS011;9047;53.486;10.218;2022-08-20T17:05:41;5.82;;;1.73;;
17844;SDS011;9047;53.486;10.218;2022-08-20T17:08:16;5.43;;;1.48;;
17844;SDS011;9047;53.486;10.218;2022-08-20T17:10:56;4.32;;;1.33;;
17844;SDS011;9047;53.486;10.218;2022-08-20T17:13:26;4.22;;;1.77;;
17844;SDS011;9047;53.486;10.218;2022-08-20T17:15:56;5.13;;;1.52;;
17844;SDS011;9047;53.486;10.218;2022-08-20T17:18:27;4.05;;;1.85;;
17844;SDS011;9047;53.486;10.218;2022-08-20T17:20:59;6.05;;;2.05;;
17844;SDS011;9047;53.486;10.218;2022-08-20T17:23:30;4.95;;;1.50;;
17844;SDS011;9047;53.486;10.218;2022-08-20T17:26:04;5.95;;;2.03;;
17844;SDS011;9047;53.486;10.218;2022-08-20T17:28:47;5.35;;;1.60;;
17844;SDS011;9047;53.486;10.218;2022-08-20T17:31:58;5.78;;;2.00;;
17844;SDS011;9047;53.486;10.218;2022-08-20T17:34:12;5.55;;;2.10;;
17844;SDS011;9047;53.486;10.218;2022-08-20T17:36:46;4.75;;;2.13;;
17844;SDS011;9047;53.486;10.218;2022-08-20T17:39:18;6.18;;;2.00;;
17844;SDS011;9047;53.486;10.218;2022-08-20T17:41:55;4.85;;;2.00;;
17844;SDS011;9047;53.486;10.218;2022-08-20T17:44:31;6.18;;;1.85;;
17844;SDS011;9047;53.486;10.218;2022-08-20T17:47:01;6.63;;;2.10;;
17844;SDS011;9047;53.486;10.218;2022-08-20T17:49:32;5.38;;;1.75;;
17844;SDS011;9047;53.486;10.218;2022-08-20T17:52:03;4.07;;;1.48;;
17844;SDS011;9047;53.486;10.218;2022-08-20T17:54:39;6.00;;;1.20;;
17844;SDS011;9047;53.486;10.218;2022-08-20T17:57:10;3.22;;;1.42;;
17844;SDS011;9047;53.486;10.218;2022-08-20T17:59:39;7.18;;;3.05;;
17844;SDS011;9047;53.486;10.218;2022-08-20T18:02:08;6.95;;;3.00;;
17844;SDS011;9047;53.486;10.218;2022-08-20T18:04:38;5.35;;;2.20;;
17844;SDS011;9047;53.486;10.218;2022-08-20T18:07:07;5.35;;;2.13;;
17844;SDS011;9047;53.486;10.218;2022-08-20T18:09:42;3.75;;;1.73;;
17844;SDS011;9047;53.486;10.218;2022-08-20T18:12:18;4.40;;;1.38;;
17844;SDS011;9047;53.486;10.218;2022-08-20T18:14:54;6.03;;;1.63;;
17844;SDS011;9047;53.486;10.218;2022-08-20T18:21:05;4.82;;;1.63;;
17844;SDS011;9047;53.486;10.218;2022-08-20T18:23:50;4.05;;;1.65;;
17844;SDS011;9047;53.486;10.218;2022-08-20T18:26:33;3.15;;;1.70;;
17844;SDS011;9047;53.486;10.218;2022-08-20T18:29:10;5.43;;;1.60;;
17844;SDS011;9047;53.486;10.218;2022-08-20T18:32:29;4.30;;;1.85;;
17844;SDS011;9047;53.486;10.218;2022-08-20T18:35:16;4.13;;;1.75;;
17844;SDS011;9047;53.486;10.218;2022-08-20T18:38:28;4.95;;;2.17;;
17844;SDS011;9047;53.486;10.218;2022-08-20T18:41:06;6.28;;;3.17;;
17844;SDS011;9047;53.486;10.218;2022-08-20T18:43:59;6.35;;;2.75;;